createdAt,value
2023-03-01T00:46:14.280Z,4.18
2023-03-01T00:48:43.234Z,4.05
2023-03-01T00:51:14.795Z,4.22
2023-03-01T00:53:44.185Z,4.25
2023-03-01T00:56:15.562Z,3.90
2023-03-01T00:58:44.658Z,4.38
2023-03-01T01:45:58.017Z,4.10
2023-03-01T01:48:41.238Z,3.75
2023-03-01T01:51:14.899Z,3.83
2023-03-01T01:53:47.472Z,4.10
2023-03-01T01:56:17.724Z,3.90
2023-03-01T01:58:48.465Z,3.63
2023-03-01T02:45:48.750Z,3.35
2023-03-01T02:48:28.221Z,3.72
2023-03-01T02:51:15.387Z,3.95
2023-03-01T02:53:58.039Z,3.67
2023-03-01T02:56:26.409Z,3.22
2023-03-01T02:58:55.478Z,3.45
2023-03-01T03:48:51.778Z,3.65
2023-03-01T03:51:20.829Z,3.38
2023-03-01T03:53:49.228Z,3.40
2023-03-01T03:56:17.548Z,3.67
2023-03-01T03:58:45.964Z,3.67
2023-03-01T04:46:03.737Z,2.92
2023-03-01T04:48:33.344Z,3.35
2023-03-01T04:51:02.635Z,3.70
2023-03-01T04:53:31.329Z,3.53
2023-03-01T04:56:00.297Z,3.60
2023-03-01T04:58:29.874Z,3.22
2023-03-01T05:47:56.219Z,3.20
2023-03-01T05:50:26.822Z,3.35
2023-03-01T05:53:01.281Z,3.28
2023-03-01T05:55:31.643Z,3.13
2023-03-01T05:58:01.754Z,3.25
2023-03-01T06:00:31.244Z,3.25
2023-03-01T06:03:02.194Z,3.60
2023-03-01T06:05:31.447Z,3.38
2023-03-01T06:08:01.765Z,3.15
2023-03-01T06:10:30.969Z,3.53
2023-03-01T06:12:59.840Z,3.42
2023-03-01T06:15:28.932Z,3.92
2023-03-01T06:18:00.104Z,4.03
2023-03-01T06:20:31.477Z,7.05
2023-03-01T06:23:00.987Z,5.68
2023-03-01T06:25:30.161Z,6.95
2023-03-01T06:27:58.569Z,6.32
2023-03-01T06:30:27.953Z,6.30
2023-03-01T06:33:04.076Z,5.97
2023-03-01T06:35:34.610Z,5.00
2023-03-01T06:38:05.536Z,5.30
2023-03-01T06:40:36.324Z,4.50
2023-03-01T06:43:04.884Z,5.07
2023-03-01T06:45:37.767Z,4.50
2023-03-01T06:48:07.656Z,4.97
2023-03-01T06:50:37.992Z,4.32
2023-03-01T06:53:06.727Z,4.18
2023-03-01T06:55:35.493Z,4.28
2023-03-01T06:58:05.199Z,4.28
2023-03-01T07:00:34.355Z,4.10
2023-03-01T07:03:04.359Z,4.20
2023-03-01T07:05:33.110Z,4.53
2023-03-01T07:08:02.804Z,4.90
2023-03-01T07:10:31.403Z,4.35
2023-03-01T07:13:00.497Z,4.60
2023-03-01T07:15:31.035Z,4.75
2023-03-01T07:17:59.534Z,4.05
2023-03-01T07:20:27.889Z,4.68
2023-03-01T07:22:57.373Z,4.60
2023-03-01T07:25:27.308Z,4.90
2023-03-01T07:27:56.157Z,4.47
2023-03-01T07:30:26.901Z,4.35
2023-03-01T07:32:56.209Z,4.30
2023-03-01T07:35:25.436Z,4.07
2023-03-01T07:37:54.208Z,4.40
2023-03-01T07:40:22.607Z,4.40
2023-03-01T07:42:57.188Z,4.20
2023-03-01T07:45:26.080Z,4.03
2023-03-01T07:47:54.924Z,4.18
2023-03-01T07:50:24.868Z,3.95
2023-03-01T07:52:53.290Z,4.03
2023-03-01T07:55:22.115Z,4.15
2023-03-01T07:57:51.882Z,4.15
2023-03-01T08:00:21.313Z,4.20
2023-03-01T08:02:49.638Z,4.20
2023-03-01T08:05:18.710Z,3.83
2023-03-01T08:07:47.169Z,3.85
2023-03-01T08:10:16.683Z,3.97
2023-03-01T08:12:45.002Z,4.20
2023-03-01T08:15:14.976Z,4.25
2023-03-01T08:17:43.296Z,3.90
2023-03-01T08:20:13.561Z,4.10
2023-03-01T08:22:42.030Z,4.05
2023-03-01T08:25:11.175Z,4.20
2023-03-01T08:27:39.552Z,3.80
2023-03-01T08:30:10.146Z,3.90
2023-03-01T08:32:41.360Z,3.75
2023-03-01T08:35:10.693Z,4.03
2023-03-01T08:37:39.271Z,3.75
2023-03-01T08:40:10.915Z,4.10
2023-03-01T08:42:39.378Z,4.03
2023-03-01T08:45:09.406Z,3.75
2023-03-01T08:47:39.215Z,3.90
2023-03-01T08:50:09.052Z,3.92
2023-03-01T08:52:37.404Z,3.78
2023-03-01T08:55:07.083Z,3.30
2023-03-01T08:57:35.464Z,3.80
2023-03-01T09:00:04.300Z,4.15
2023-03-01T09:02:32.648Z,4.00
2023-03-01T09:05:02.362Z,3.60
2023-03-01T09:07:30.687Z,3.80
2023-03-01T09:09:59.099Z,3.55
2023-03-01T09:12:27.472Z,3.95
2023-03-01T09:14:55.881Z,3.78
2023-03-01T09:17:24.231Z,3.92
2023-03-01T09:19:52.536Z,3.60
2023-03-01T09:22:22.405Z,3.67
2023-03-01T09:24:50.789Z,3.70
2023-03-01T09:27:19.914Z,4.60
2023-03-01T09:29:48.293Z,3.75
2023-03-01T09:32:16.881Z,3.53
2023-03-01T09:35:05.518Z,3.45
2023-03-01T09:37:38.404Z,3.60
2023-03-01T09:40:16.522Z,3.60
2023-03-01T09:42:55.356Z,3.33
2023-03-01T09:45:32.004Z,3.58
2023-03-01T09:48:02.179Z,3.60
2023-03-01T09:50:37.530Z,3.15
2023-03-01T09:53:12.902Z,3.53
2023-03-01T09:55:46.444Z,3.90
2023-03-01T09:58:53.670Z,3.40
2023-03-01T10:01:37.236Z,3.58
2023-03-01T10:04:37.394Z,3.20
2023-03-01T10:07:26.172Z,3.15
2023-03-01T10:09:56.077Z,3.35
2023-03-01T10:12:29.467Z,3.60
2023-03-01T10:15:06.179Z,3.53
2023-03-01T10:17:40.031Z,3.47
2023-03-01T10:20:22.105Z,3.00
2023-03-01T10:22:53.385Z,3.47
2023-03-01T10:25:44.742Z,3.70
2023-03-01T10:28:19.725Z,3.33
2023-03-01T10:30:48.129Z,3.35
2023-03-01T10:33:22.525Z,3.60
2023-03-01T10:35:51.048Z,3.10
2023-03-01T10:38:21.320Z,2.97
2023-03-01T10:40:57.940Z,3.17
2023-03-01T10:43:27.087Z,3.03
2023-03-01T10:45:55.780Z,3.38
2023-03-01T10:48:27.245Z,3.28
2023-03-01T10:51:08.800Z,3.08
2023-03-01T10:53:40.070Z,3.10
2023-03-01T10:56:13.065Z,2.95
2023-03-01T10:58:58.154Z,3.35
2023-03-01T11:01:30.177Z,3.20
2023-03-01T11:04:15.112Z,3.20
2023-03-01T11:06:44.297Z,2.72
2023-03-01T11:09:22.068Z,3.00
2023-03-01T11:11:55.739Z,3.40
2023-03-01T11:14:28.020Z,3.33
2023-03-01T11:17:05.611Z,3.10
2023-03-01T11:19:34.863Z,3.10
2023-03-01T11:22:07.631Z,3.13
2023-03-01T11:24:54.765Z,3.28
2023-03-01T11:27:37.698Z,3.05
2023-03-01T11:30:18.604Z,3.08
2023-03-01T11:32:59.210Z,2.97
2023-03-01T11:35:30.203Z,3.20
2023-03-01T11:38:16.644Z,3.25
2023-03-01T11:40:54.320Z,2.83
2023-03-01T11:43:35.328Z,2.70
2023-03-01T11:46:41.937Z,3.40
2023-03-01T11:49:38.430Z,3.00
2023-03-01T11:52:15.168Z,2.80
2023-03-01T11:54:58.610Z,3.25
2023-03-01T11:57:53.270Z,2.65
2023-03-01T12:00:46.806Z,3.03
2023-03-01T12:03:35.558Z,3.03
2023-03-01T12:06:25.071Z,2.83
2023-03-01T12:09:07.009Z,3.08
2023-03-01T12:11:54.079Z,2.70
2023-03-01T12:15:01.686Z,3.28
2023-03-01T12:18:20.185Z,2.63
2023-03-01T12:21:00.822Z,3.10
2023-03-01T12:23:55.131Z,3.00
2023-03-01T12:26:31.980Z,2.97
2023-03-01T12:29:27.165Z,2.95
2023-03-01T12:32:26.746Z,2.80
2023-03-01T12:35:26.077Z,3.10
2023-03-01T12:38:05.119Z,3.15
2023-03-01T12:41:18.449Z,2.80
2023-03-01T12:44:06.449Z,2.92
2023-03-01T12:46:54.517Z,2.88
2023-03-01T12:49:30.327Z,2.95
2023-03-01T12:52:05.871Z,2.50
2023-03-01T12:54:37.726Z,2.80
2023-03-01T12:57:14.971Z,2.80
2023-03-01T12:59:50.082Z,2.70
2023-03-01T13:02:26.006Z,2.88
2023-03-01T13:05:17.389Z,2.90
2023-03-01T13:07:56.339Z,2.67
2023-03-01T13:10:35.213Z,2.70
2023-03-01T13:13:16.261Z,2.55
2023-03-01T13:15:44.847Z,2.33
2023-03-01T13:18:34.328Z,2.80
2023-03-01T13:21:06.692Z,3.00
2023-03-01T13:23:39.463Z,2.78
2023-03-01T13:26:16.979Z,2.60
2023-03-01T13:29:01.718Z,2.85
2023-03-01T13:32:01.178Z,2.42
2023-03-01T13:35:01.135Z,2.88
2023-03-01T13:37:38.456Z,2.60
2023-03-01T13:41:06.880Z,2.55
2023-03-01T13:43:38.288Z,2.42
2023-03-01T13:46:18.959Z,2.80
2023-03-01T13:48:51.855Z,2.65
2023-03-01T13:51:26.889Z,2.30
2023-03-01T13:53:57.734Z,2.40
2023-03-01T13:56:35.297Z,2.70
2023-03-01T13:59:07.959Z,2.30
2023-03-01T14:01:38.305Z,2.50
2023-03-01T14:04:23.720Z,2.63
2023-03-01T14:06:52.380Z,2.53
2023-03-01T14:09:25.649Z,2.50
2023-03-01T14:12:27.834Z,2.33
2023-03-01T14:15:03.561Z,2.45
2023-03-01T14:18:03.212Z,2.47
2023-03-01T14:20:37.083Z,2.53
2023-03-01T14:23:15.022Z,2.78
2023-03-01T14:25:50.899Z,2.67
2023-03-01T14:28:25.293Z,2.58
2023-03-01T14:30:56.069Z,2.63
2023-03-01T14:33:29.672Z,2.95
2023-03-01T14:36:01.713Z,2.50
2023-03-01T14:38:37.173Z,2.78
2023-03-01T14:41:10.180Z,2.88
2023-03-01T14:43:42.670Z,2.50
2023-03-01T14:46:22.111Z,2.70
2023-03-01T14:48:53.346Z,2.22
2023-03-01T14:51:21.761Z,2.47
2023-03-01T14:53:51.627Z,2.40
2023-03-01T14:56:20.461Z,2.20
2023-03-01T14:58:54.470Z,2.60
2023-03-01T15:01:23.252Z,2.50
2023-03-01T15:03:52.660Z,2.38
2023-03-01T15:06:24.378Z,2.25
2023-03-01T15:08:57.836Z,2.40
2023-03-01T15:11:31.237Z,2.50
2023-03-01T15:14:01.587Z,2.65
2023-03-01T15:16:33.661Z,2.50
2023-03-01T15:19:05.881Z,2.78
2023-03-01T15:21:36.758Z,2.28
2023-03-01T15:24:20.853Z,2.85
2023-03-01T15:26:58.944Z,2.60
2023-03-01T15:29:34.149Z,2.60
2023-03-01T15:32:05.986Z,2.60
2023-03-01T15:34:38.281Z,2.42
2023-03-01T15:37:09.653Z,2.47
2023-03-01T15:39:44.237Z,2.60
2023-03-01T15:42:17.591Z,2.28
2023-03-01T15:44:47.621Z,2.10
2023-03-01T15:47:31.882Z,2.20
2023-03-01T15:50:02.652Z,2.58
2023-03-01T15:52:40.188Z,2.47
2023-03-01T15:55:18.543Z,2.22
2023-03-01T15:57:47.051Z,2.22
2023-03-01T16:00:18.756Z,2.40
2023-03-01T16:02:53.359Z,2.10
2023-03-01T16:05:25.546Z,2.45
2023-03-01T16:07:54.523Z,2.53
2023-03-01T16:10:24.026Z,2.38
2023-03-01T16:12:53.630Z,2.40
2023-03-01T16:15:25.384Z,2.63
2023-03-01T16:17:54.211Z,2.40
2023-03-01T16:20:28.820Z,2.53
2023-03-01T16:23:00.981Z,2.65
2023-03-01T16:25:30.321Z,2.60
2023-03-01T16:28:00.394Z,2.53
2023-03-01T16:30:30.182Z,2.35
2023-03-01T16:32:59.324Z,2.40
2023-03-01T16:35:27.875Z,2.60
2023-03-01T16:37:56.250Z,2.40
2023-03-01T16:40:28.224Z,2.58
2023-03-01T16:43:00.448Z,2.67
2023-03-01T16:45:35.359Z,2.72
2023-03-01T16:48:03.874Z,2.60
2023-03-01T16:50:32.257Z,2.40
2023-03-01T16:53:04.057Z,2.33
2023-03-01T16:55:32.412Z,2.63
2023-03-01T16:58:00.849Z,3.33
2023-03-01T17:00:31.086Z,5.75
2023-03-01T17:02:59.630Z,4.05
2023-03-01T17:05:28.044Z,4.25
2023-03-01T17:07:57.116Z,4.25
2023-03-01T17:10:25.762Z,4.50
2023-03-01T17:12:54.792Z,5.38
2023-03-01T17:15:23.300Z,5.57
2023-03-01T17:17:53.156Z,5.80
2023-03-01T17:20:21.693Z,5.85
2023-03-01T17:22:50.190Z,6.20
2023-03-01T17:25:18.585Z,5.13
2023-03-01T17:27:46.949Z,5.00
2023-03-01T17:30:16.818Z,23.88
2023-03-01T17:32:45.381Z,20.55
2023-03-01T17:35:15.437Z,17.50
2023-03-01T17:37:46.488Z,18.17
2023-03-01T17:40:15.367Z,20.10
2023-03-01T17:42:43.769Z,28.35
2023-03-01T17:45:12.729Z,22.77
2023-03-01T17:47:41.132Z,163.07
2023-03-01T17:50:12.221Z,94.93
2023-03-01T17:52:42.530Z,82.30
2023-03-01T17:55:11.752Z,63.15
2023-03-01T17:57:41.546Z,56.50
2023-03-01T18:00:14.008Z,51.72
2023-03-01T18:02:43.080Z,42.30
2023-03-01T18:05:12.408Z,41.97
2023-03-01T18:07:42.218Z,41.30
2023-03-01T18:10:12.377Z,40.65
2023-03-01T18:12:42.090Z,38.42
2023-03-01T18:15:11.901Z,37.90
2023-03-01T18:17:40.451Z,38.67
2023-03-01T18:20:10.586Z,37.85
2023-03-01T18:22:39.266Z,38.05
2023-03-01T18:25:10.333Z,39.03
2023-03-01T18:27:38.976Z,36.38
2023-03-01T18:30:10.057Z,31.15
2023-03-01T18:32:39.538Z,26.90
2023-03-01T18:35:09.526Z,28.58
2023-03-01T18:37:38.522Z,28.20
2023-03-01T18:40:10.719Z,28.90
2023-03-01T18:42:39.109Z,25.02
2023-03-01T18:45:09.132Z,23.92
2023-03-01T18:47:37.510Z,24.95
2023-03-01T18:50:07.367Z,23.30
2023-03-01T18:52:35.706Z,23.77
2023-03-01T18:55:04.036Z,21.48
2023-03-01T18:57:33.675Z,21.38
2023-03-01T19:00:02.128Z,20.13
2023-03-01T19:02:30.510Z,21.67
2023-03-01T19:04:58.947Z,20.13
2023-03-01T19:07:27.335Z,20.02
2023-03-01T19:09:55.701Z,18.48
2023-03-01T19:12:24.089Z,19.13
2023-03-01T19:14:53.789Z,18.70
2023-03-01T19:17:24.656Z,17.75
2023-03-01T19:19:53.571Z,17.75
2023-03-01T19:22:21.875Z,18.02
2023-03-01T19:24:50.882Z,17.23
2023-03-01T19:27:19.287Z,17.30
2023-03-01T19:29:47.626Z,16.50
2023-03-01T19:32:20.111Z,16.05
2023-03-01T19:34:48.521Z,16.10
2023-03-01T19:37:17.005Z,14.52
2023-03-01T19:39:45.641Z,15.77
2023-03-01T19:42:13.961Z,14.35
2023-03-01T19:44:42.315Z,14.07
2023-03-01T19:47:10.608Z,14.20
2023-03-01T19:49:40.626Z,14.23
2023-03-01T19:52:09.188Z,13.43
2023-03-01T19:54:37.612Z,12.93
2023-03-01T19:57:05.981Z,13.65
2023-03-01T19:59:34.302Z,13.13
2023-03-01T20:02:03.884Z,12.70
2023-03-01T20:04:32.400Z,12.88
2023-03-01T20:07:02.146Z,13.10
2023-03-01T20:09:30.521Z,11.93
2023-03-01T20:11:58.961Z,11.18
2023-03-01T20:14:27.400Z,12.80
2023-03-01T20:16:55.721Z,11.48
2023-03-01T20:19:24.251Z,11.27
2023-03-01T20:21:52.619Z,10.98
2023-03-01T20:24:22.560Z,11.05
2023-03-01T20:26:50.861Z,11.30
2023-03-01T20:29:19.850Z,11.25
2023-03-01T20:31:48.344Z,10.77
2023-03-01T20:34:17.338Z,10.75
2023-03-01T20:36:46.000Z,9.95
2023-03-01T20:39:14.378Z,9.93
2023-03-01T20:41:44.202Z,10.52
2023-03-01T20:44:12.526Z,11.02
2023-03-01T20:46:40.975Z,12.30
2023-03-01T20:49:10.614Z,12.65
2023-03-01T20:51:39.212Z,17.45
2023-03-01T20:54:07.629Z,35.92
2023-03-01T20:56:36.146Z,31.58
2023-03-01T20:59:08.362Z,39.35
2023-03-01T21:01:38.573Z,57.42
2023-03-01T21:04:07.542Z,56.80
2023-03-01T21:06:36.400Z,86.70
2023-03-01T21:09:05.275Z,82.38
2023-03-01T21:11:33.660Z,79.05
2023-03-01T21:14:02.019Z,72.40
2023-03-01T21:16:32.261Z,68.55
2023-03-01T21:19:01.560Z,65.07
2023-03-01T21:21:30.274Z,61.85
2023-03-01T21:23:58.701Z,62.08
2023-03-01T21:26:29.565Z,57.22
2023-03-01T21:29:02.689Z,53.08
2023-03-01T21:31:36.136Z,52.38
2023-03-01T21:34:07.210Z,51.58
2023-03-01T21:36:36.725Z,51.75
2023-03-01T21:39:07.249Z,53.47
2023-03-01T21:41:38.388Z,50.47
2023-03-01T21:44:08.326Z,50.90
2023-03-01T21:46:40.382Z,48.42
2023-03-01T21:49:11.223Z,48.03
2023-03-01T21:51:39.753Z,47.35
2023-03-01T21:54:08.718Z,47.25
2023-03-01T21:56:39.053Z,48.80
2023-03-01T21:59:16.532Z,45.78
2023-03-01T22:01:46.738Z,45.30
2023-03-01T22:04:16.094Z,43.97
2023-03-01T22:06:47.264Z,46.05
2023-03-01T22:09:18.296Z,43.42
2023-03-01T22:11:49.831Z,40.63
2023-03-01T22:14:19.652Z,41.88
2023-03-01T22:16:51.606Z,41.75
2023-03-01T22:19:20.789Z,39.40
2023-03-01T22:21:51.421Z,37.42
2023-03-01T22:24:22.724Z,36.22
2023-03-01T22:26:53.309Z,34.25
2023-03-01T22:29:24.996Z,33.13
2023-03-01T22:31:55.356Z,34.33
2023-03-01T22:34:24.410Z,30.00
2023-03-01T22:36:52.889Z,32.30
2023-03-01T22:39:23.161Z,29.95
2023-03-01T22:41:52.397Z,32.13
2023-03-01T22:44:23.517Z,29.50
2023-03-01T22:46:52.293Z,28.45
2023-03-01T22:49:22.634Z,26.60
2023-03-01T22:51:51.746Z,25.48
2023-03-01T22:54:20.892Z,25.63
2023-03-01T22:56:50.000Z,25.77
2023-03-01T22:59:22.945Z,22.50
2023-03-01T23:01:52.250Z,21.73
2023-03-01T23:04:23.842Z,21.10
2023-03-01T23:06:56.996Z,21.52
2023-03-01T23:09:30.587Z,21.02
2023-03-01T23:12:00.549Z,19.90
2023-03-01T23:14:32.985Z,20.85
2023-03-01T23:17:02.404Z,20.13
2023-03-01T23:19:33.058Z,17.60
2023-03-01T23:22:01.510Z,18.25
2023-03-01T23:24:32.502Z,18.20
2023-03-01T23:27:02.839Z,17.23
2023-03-01T23:29:31.559Z,17.20
2023-03-01T23:32:01.115Z,15.30
2023-03-01T23:34:31.173Z,15.70
2023-03-01T23:36:59.691Z,16.25
2023-03-01T23:39:29.907Z,16.85
2023-03-01T23:41:58.784Z,16.15
2023-03-01T23:44:27.508Z,16.10
2023-03-01T23:46:56.103Z,16.33
2023-03-01T23:49:25.824Z,15.30
2023-03-01T23:51:55.682Z,15.35
2023-03-01T23:54:26.604Z,14.48
2023-03-01T23:56:55.004Z,14.13
2023-03-01T23:59:25.392Z,13.05
